ADDS METAR Data INFO
IDs: Format: Raw Decoded Include TAF

Data at: 0101 UTC 21 Oct 2017

KTAN 210052Z AUTO 00000KT 10SM CLR 09/05 A3009 RMK AO2 SLP189 T00890050
KTAN 202352Z AUTO 00000KT 10SM CLR 12/05 A3007 RMK AO2 SLP184 T01170050 10217 20094 53020
KTAN 202252Z AUTO 00000KT 10SM CLR 14/04 A3005 RMK AO2 SLP177 T01390044
KTAN 202152Z AUTO 30004KT 10SM CLR 18/03 A3003 RMK AO2 SLP170 T01830028
KTAN 202052Z AUTO 30004KT 10SM CLR 21/04 A3001 RMK AO2 SLP163 T02060039 53002
KTAN 201952Z AUTO 28007KT 260V320 10SM CLR 21/04 A3000 RMK AO2 SLP160 T02110039
KTAN 201852Z AUTO 28008G16KT 250V320 10SM CLR 22/04 A3000 RMK AO2 SLP158 T02170044
KTAN 201752Z AUTO VRB06KT 10SM CLR 21/04 A3001 RMK AO2 SLP162 T02110044 10211 20100 58018
KTAN 201652Z AUTO 32010KT 10SM CLR 21/04 A3003 RMK AO2 SLP168 T02060044
KTAN 201552Z AUTO 34008KT 10SM CLR 20/05 A3005 RMK AO2 SLP175 T02000050
KTAN 201452Z AUTO 32007KT 10SM CLR 19/06 A3006 RMK AO2 SLP180 T01890056 50004
KTAN 201352Z AUTO 30007KT 270V330 10SM CLR 17/07 A3007 RMK AO2 SLP183 T01720072
KTAN 201252Z AUTO VRB05KT 10SM CLR 15/07 A3006 RMK AO2 SLP179 T01500072
KTAN 201152Z AUTO 00000KT 10SM CLR 10/07 A3005 RMK AO2 SLP175 T01000072 10150 20083 53016
KTAN 201052Z AUTO 00000KT 10SM CLR 11/07 A3002 RMK AO2 SLP164 T01060072
KTAN 200952Z AUTO 00000KT 10SM CLR 12/08 A3001 RMK AO2 SLP163 T01220083
KTAN 200852Z AUTO 25003KT 10SM CLR 13/09 A3000 RMK AO2 SLP159 T01330094 56003
KTAN 200752Z AUTO 24003KT 10SM CLR 13/11 A3000 RMK AO2 SLP160 T01330111
KTAN 200652Z AUTO 22003KT 10SM CLR 14/12 A3000 RMK AO2 SLP159 T01440117
KTAN 200552Z AUTO 24006KT 10SM CLR 15/12 A3001 RMK AO2 SLP162 T01500117 10156 20150 56006
KTAN 200452Z AUTO 23007KT 10SM CLR 16/12 A3001 RMK AO2 SLP164 T01560122 402170033
KTAN 200352Z AUTO 23005KT 10SM CLR 16/12 A3002 RMK AO2 SLP166 T01560117
KTAN 200252Z AUTO 23007KT 10SM CLR 15/12 A3003 RMK AO2 SLP168 T01500117 58001
KTAN 200152Z AUTO 22006KT 10SM CLR 15/12 A3004 RMK AO2 SLP174 T01500117
KTAN 200052Z AUTO 22011G18KT 10SM CLR 16/12 A3003 RMK AO2 SLP170 T01560117
KTAN 192352Z AUTO 20007G15KT 10SM CLR 16/12 A3003 RMK AO2 SLP169 T01560117 10211 20156 58013
KTAN 192252Z AUTO 18009G16KT 10SM CLR 16/12 A3005 RMK AO2 SLP176 T01610117
KTAN 192152Z AUTO 19007G15KT 10SM CLR 17/12 A3006 RMK AO2 SLP178 T01670117
KTAN 192052Z AUTO 18007G14KT 10SM CLR 19/11 A3007 RMK AO2 SLP182 T01890111 56021
KTAN 191952Z AUTO 19012G19KT 10SM CLR 20/11 A3009 RMK AO2 SLP189 T02000106
KTAN 191852Z AUTO 20010G19KT 170V240 10SM CLR 21/11 A3011 RMK AO2 SLP195 T02060111
KTAN 191752Z AUTO 22010G18KT 10SM CLR 21/09 A3013 RMK AO2 SLP203 T02110094 10217 20056 58029
KTAN 191652Z AUTO 20009G19KT 160V220 10SM CLR 21/09 A3017 RMK AO2 SLP215 T02110094
KTAN 191552Z AUTO 21008G15KT 10SM CLR 21/09 A3019 RMK AO2 SLP224 T02060094
KTAN 191452Z AUTO 20009G15KT 10SM CLR 19/11 A3022 RMK AO2 SLP232 T01940111 58009
KTAN 191352Z AUTO 21006KT 10SM CLR 18/14 A3023 RMK AO2 SLP237 T01830139